sensor_id;sensor_type;location;lat;lon;timestamp;temperature;humidity
9598;DHT22;4837;50.890;4.724;2023-12-29T10:13:58;10.90;99.90
9598;DHT22;4837;50.890;4.724;2023-12-29T10:16:32;11.00;99.90
9598;DHT22;4837;50.890;4.724;2023-12-29T10:19:10;11.00;99.90
9598;DHT22;4837;50.890;4.724;2023-12-29T10:24:18;11.10;99.90
9598;DHT22;4837;50.890;4.724;2023-12-29T10:26:45;11.20;99.90
9598;DHT22;4837;50.890;4.724;2023-12-29T10:29:12;11.10;99.90
9598;DHT22;4837;50.890;4.724;2023-12-29T10:34:21;11.20;99.90
9598;DHT22;4837;50.890;4.724;2023-12-29T10:36:54;11.20;99.90
9598;DHT22;4837;50.890;4.724;2023-12-29T10:39:22;11.20;99.90
9598;DHT22;4837;50.890;4.724;2023-12-29T10:41:48;11.20;99.90
9598;DHT22;4837;50.890;4.724;2023-12-29T10:44:14;11.20;99.90
9598;DHT22;4837;50.890;4.724;2023-12-29T10:46:39;11.30;99.90
9598;DHT22;4837;50.890;4.724;2023-12-29T10:49:10;11.30;99.90
9598;DHT22;4837;50.890;4.724;2023-12-29T10:51:36;11.30;99.90
9598;DHT22;4837;50.890;4.724;2023-12-29T10:54:05;11.40;99.90
9598;DHT22;4837;50.890;4.724;2023-12-29T10:56:31;11.40;99.90
9598;DHT22;4837;50.890;4.724;2023-12-29T10:59:02;11.40;99.90
9598;DHT22;4837;50.890;4.724;2023-12-29T11:01:35;11.40;99.90
9598;DHT22;4837;50.890;4.724;2023-12-29T11:04:03;11.50;99.90
9598;DHT22;4837;50.890;4.724;2023-12-29T11:06:39;11.50;99.90
9598;DHT22;4837;50.890;4.724;2023-12-29T11:09:05;11.40;99.90
9598;DHT22;4837;50.890;4.724;2023-12-29T11:11:31;11.40;99.90
9598;DHT22;4837;50.890;4.724;2023-12-29T11:13:57;11.40;99.90
9598;DHT22;4837;50.890;4.724;2023-12-29T11:16:24;11.30;99.90
9598;DHT22;4837;50.890;4.724;2023-12-29T11:18:51;11.30;99.90
9598;DHT22;4837;50.890;4.724;2023-12-29T11:36:18;11.40;99.90
9598;DHT22;4837;50.890;4.724;2023-12-29T11:44:27;11.60;99.90
9598;DHT22;4837;50.890;4.724;2023-12-29T11:46:56;11.60;99.90
9598;DHT22;4837;50.890;4.724;2023-12-29T11:49:23;11.60;99.90
9598;DHT22;4837;50.890;4.724;2023-12-29T11:51:50;11.60;99.90
9598;DHT22;4837;50.890;4.724;2023-12-29T11:54:26;11.60;99.90
9598;DHT22;4837;50.890;4.724;2023-12-29T11:56:53;11.60;99.90
9598;DHT22;4837;50.890;4.724;2023-12-29T11:59:20;11.60;99.90
9598;DHT22;4837;50.890;4.724;2023-12-29T12:01:54;11.60;99.90
9598;DHT22;4837;50.890;4.724;2023-12-29T12:04:39;11.60;99.90
9598;DHT22;4837;50.890;4.724;2023-12-29T12:12:58;11.60;99.90
9598;DHT22;4837;50.890;4.724;2023-12-29T12:17:54;11.50;99.90
9598;DHT22;4837;50.890;4.724;2023-12-29T12:20:20;11.50;99.90
9598;DHT22;4837;50.890;4.724;2023-12-29T12:22:50;11.40;99.90
9598;DHT22;4837;50.890;4.724;2023-12-29T12:25:16;11.40;99.90
9598;DHT22;4837;50.890;4.724;2023-12-29T12:27:42;11.40;99.90
9598;DHT22;4837;50.890;4.724;2023-12-29T12:30:09;11.30;99.90
9598;DHT22;4837;50.890;4.724;2023-12-29T12:32:35;11.20;99.90
9598;DHT22;4837;50.890;4.724;2023-12-29T12:35:01;11.10;99.90
9598;DHT22;4837;50.890;4.724;2023-12-29T12:37:29;11.10;99.90
9598;DHT22;4837;50.890;4.724;2023-12-29T12:39:55;11.10;99.90
9598;DHT22;4837;50.890;4.724;2023-12-29T12:42:22;11.10;99.90
9598;DHT22;4837;50.890;4.724;2023-12-29T12:44:56;11.00;99.90
9598;DHT22;4837;50.890;4.724;2023-12-29T12:47:45;11.10;99.90
9598;DHT22;4837;50.890;4.724;2023-12-29T12:50:16;11.00;99.90
9598;DHT22;4837;50.890;4.724;2023-12-29T12:52:42;11.10;99.90
9598;DHT22;4837;50.890;4.724;2023-12-29T12:55:08;11.00;99.90
9598;DHT22;4837;50.890;4.724;2023-12-29T12:57:36;11.00;99.90
9598;DHT22;4837;50.890;4.724;2023-12-29T13:00:03;11.00;99.90
9598;DHT22;4837;50.890;4.724;2023-12-29T13:02:30;11.00;99.90
9598;DHT22;4837;50.890;4.724;2023-12-29T13:04:57;11.00;99.90
9598;DHT22;4837;50.890;4.724;2023-12-29T13:07:23;11.00;99.90
9598;DHT22;4837;50.890;4.724;2023-12-29T13:09:50;11.00;99.90
9598;DHT22;4837;50.890;4.724;2023-12-29T13:12:18;11.00;99.90
9598;DHT22;4837;50.890;4.724;2023-12-29T13:14:44;11.00;99.90
9598;DHT22;4837;50.890;4.724;2023-12-29T13:17:13;11.10;99.90
9598;DHT22;4837;50.890;4.724;2023-12-29T13:19:40;11.10;99.90
9598;DHT22;4837;50.890;4.724;2023-12-29T13:22:10;11.10;99.90
9598;DHT22;4837;50.890;4.724;2023-12-29T13:24:43;11.10;99.90
9598;DHT22;4837;50.890;4.724;2023-12-29T13:27:11;11.10;99.90
9598;DHT22;4837;50.890;4.724;2023-12-29T13:29:37;11.20;99.90
9598;DHT22;4837;50.890;4.724;2023-12-29T13:32:12;11.20;99.90
9598;DHT22;4837;50.890;4.724;2023-12-29T13:34:47;11.20;99.90
9598;DHT22;4837;50.890;4.724;2023-12-29T13:42:19;11.20;99.90
9598;DHT22;4837;50.890;4.724;2023-12-29T13:44:46;11.30;99.90
9598;DHT22;4837;50.890;4.724;2023-12-29T13:47:14;11.30;99.90
9598;DHT22;4837;50.890;4.724;2023-12-29T13:49:40;11.30;99.90
9598;DHT22;4837;50.890;4.724;2023-12-29T13:52:06;11.40;99.90
9598;DHT22;4837;50.890;4.724;2023-12-29T13:54:41;11.30;99.90
9598;DHT22;4837;50.890;4.724;2023-12-29T13:57:11;11.40;99.90
9598;DHT22;4837;50.890;4.724;2023-12-29T13:59:38;11.40;99.90
9598;DHT22;4837;50.890;4.724;2023-12-29T14:02:24;11.30;99.90
9598;DHT22;4837;50.890;4.724;2023-12-29T14:05:19;11.30;99.90
9598;DHT22;4837;50.890;4.724;2023-12-29T14:07:53;11.30;99.90
9598;DHT22;4837;50.890;4.724;2023-12-29T14:10:20;11.30;99.90
9598;DHT22;4837;50.890;4.724;2023-12-29T14:12:47;11.20;99.90
9598;DHT22;4837;50.890;4.724;2023-12-29T14:15:13;11.20;99.90
9598;DHT22;4837;50.890;4.724;2023-12-29T14:17:39;11.20;99.90
9598;DHT22;4837;50.890;4.724;2023-12-29T14:20:08;11.20;99.90
9598;DHT22;4837;50.890;4.724;2023-12-29T14:22:34;11.20;99.90
9598;DHT22;4837;50.890;4.724;2023-12-29T14:25:07;11.10;99.90
9598;DHT22;4837;50.890;4.724;2023-12-29T14:27:33;11.10;99.90
9598;DHT22;4837;50.890;4.724;2023-12-29T14:29:59;11.10;99.90
9598;DHT22;4837;50.890;4.724;2023-12-29T14:32:25;11.10;99.90
9598;DHT22;4837;50.890;4.724;2023-12-29T14:34:51;11.10;99.90
9598;DHT22;4837;50.890;4.724;2023-12-29T14:37:22;11.00;99.90
9598;DHT22;4837;50.890;4.724;2023-12-29T14:39:51;11.10;99.90
9598;DHT22;4837;50.890;4.724;2023-12-29T14:42:18;11.00;99.90
9598;DHT22;4837;50.890;4.724;2023-12-29T14:44:47;11.00;99.90
9598;DHT22;4837;50.890;4.724;2023-12-29T14:47:15;11.00;99.90
9598;DHT22;4837;50.890;4.724;2023-12-29T14:49:41;11.00;99.90
9598;DHT22;4837;50.890;4.724;2023-12-29T14:52:08;10.90;99.90
9598;DHT22;4837;50.890;4.724;2023-12-29T14:54:34;10.90;99.90
9598;DHT22;4837;50.890;4.724;2023-12-29T14:57:00;10.90;99.90
9598;DHT22;4837;50.890;4.724;2023-12-29T14:59:25;10.90;99.90
9598;DHT22;4837;50.890;4.724;2023-12-29T15:01:51;11.00;99.90
9598;DHT22;4837;50.890;4.724;2023-12-29T15:04:17;11.00;99.90
9598;DHT22;4837;50.890;4.724;2023-12-29T15:06:43;11.00;99.90
9598;DHT22;4837;50.890;4.724;2023-12-29T15:09:09;11.00;99.90
9598;DHT22;4837;50.890;4.724;2023-12-29T15:11:36;11.00;99.90
9598;DHT22;4837;50.890;4.724;2023-12-29T15:14:02;11.10;99.90
9598;DHT22;4837;50.890;4.724;2023-12-29T15:16:28;11.10;99.90
9598;DHT22;4837;50.890;4.724;2023-12-29T15:18:54;11.10;99.90
9598;DHT22;4837;50.890;4.724;2023-12-29T15:21:19;11.10;99.90
9598;DHT22;4837;50.890;4.724;2023-12-29T15:23:45;11.10;99.90
9598;DHT22;4837;50.890;4.724;2023-12-29T15:26:11;11.10;99.90
9598;DHT22;4837;50.890;4.724;2023-12-29T15:28:40;11.10;99.90
9598;DHT22;4837;50.890;4.724;2023-12-29T15:31:06;11.20;99.90
9598;DHT22;4837;50.890;4.724;2023-12-29T15:33:31;11.20;99.90
9598;DHT22;4837;50.890;4.724;2023-12-29T15:35:57;11.20;99.90
9598;DHT22;4837;50.890;4.724;2023-12-29T15:38:23;11.20;99.90
9598;DHT22;4837;50.890;4.724;2023-12-29T15:40:50;11.20;99.90
9598;DHT22;4837;50.890;4.724;2023-12-29T15:43:16;11.30;99.90
9598;DHT22;4837;50.890;4.724;2023-12-29T15:45:42;11.20;99.90
9598;DHT22;4837;50.890;4.724;2023-12-29T15:48:08;11.30;99.90
9598;DHT22;4837;50.890;4.724;2023-12-29T15:50:34;11.20;99.90
9598;DHT22;4837;50.890;4.724;2023-12-29T15:53:00;11.20;99.90
9598;DHT22;4837;50.890;4.724;2023-12-29T15:55:26;11.20;99.90
9598;DHT22;4837;50.890;4.724;2023-12-29T15:57:52;11.20;99.90
9598;DHT22;4837;50.890;4.724;2023-12-29T16:00:18;11.20;99.90
9598;DHT22;4837;50.890;4.724;2023-12-29T16:02:44;11.20;99.90
9598;DHT22;4837;50.890;4.724;2023-12-29T16:05:10;11.20;99.90
9598;DHT22;4837;50.890;4.724;2023-12-29T16:07:36;11.10;99.90
9598;DHT22;4837;50.890;4.724;2023-12-29T16:10:02;11.10;99.90
9598;DHT22;4837;50.890;4.724;2023-12-29T16:12:28;11.10;99.90
9598;DHT22;4837;50.890;4.724;2023-12-29T16:14:54;11.10;99.90
9598;DHT22;4837;50.890;4.724;2023-12-29T16:17:20;11.10;99.90
9598;DHT22;4837;50.890;4.724;2023-12-29T16:19:46;11.10;99.90
9598;DHT22;4837;50.890;4.724;2023-12-29T16:22:12;11.10;99.90
9598;DHT22;4837;50.890;4.724;2023-12-29T16:24:38;11.10;99.90
9598;DHT22;4837;50.890;4.724;2023-12-29T16:27:04;11.00;99.90
9598;DHT22;4837;50.890;4.724;2023-12-29T16:29:30;11.10;99.90
9598;DHT22;4837;50.890;4.724;2023-12-29T16:31:56;11.00;99.90
9598;DHT22;4837;50.890;4.724;2023-12-29T16:34:22;11.00;99.90
9598;DHT22;4837;50.890;4.724;2023-12-29T16:36:59;11.00;99.90
9598;DHT22;4837;50.890;4.724;2023-12-29T16:39:25;10.90;99.90
9598;DHT22;4837;50.890;4.724;2023-12-29T16:41:51;10.90;99.90
9598;DHT22;4837;50.890;4.724;2023-12-29T16:44:17;10.90;99.90
9598;DHT22;4837;50.890;4.724;2023-12-29T16:46:43;10.90;99.90
9598;DHT22;4837;50.890;4.724;2023-12-29T16:49:08;10.90;99.90
9598;DHT22;4837;50.890;4.724;2023-12-29T16:51:34;10.90;99.90
9598;DHT22;4837;50.890;4.724;2023-12-29T16:54:00;10.90;99.90
9598;DHT22;4837;50.890;4.724;2023-12-29T16:56:27;11.00;99.90
9598;DHT22;4837;50.890;4.724;2023-12-29T16:58:53;11.00;99.90
9598;DHT22;4837;50.890;4.724;2023-12-29T17:01:20;11.00;99.90
9598;DHT22;4837;50.890;4.724;2023-12-29T17:03:48;11.00;99.90
9598;DHT22;4837;50.890;4.724;2023-12-29T17:06:13;11.00;99.90
9598;DHT22;4837;50.890;4.724;2023-12-29T17:08:39;11.10;99.90
9598;DHT22;4837;50.890;4.724;2023-12-29T17:11:05;11.10;99.90
9598;DHT22;4837;50.890;4.724;2023-12-29T17:13:31;11.10;99.90
9598;DHT22;4837;50.890;4.724;2023-12-29T17:15:59;11.10;99.90
9598;DHT22;4837;50.890;4.724;2023-12-29T17:18:25;11.10;99.90
9598;DHT22;4837;50.890;4.724;2023-12-29T17:20:50;11.10;99.90
9598;DHT22;4837;50.890;4.724;2023-12-29T17:23:16;11.10;99.90
9598;DHT22;4837;50.890;4.724;2023-12-29T17:25:42;11.20;99.90
9598;DHT22;4837;50.890;4.724;2023-12-29T17:28:08;11.20;99.90
9598;DHT22;4837;50.890;4.724;2023-12-29T17:30:34;11.20;99.90
9598;DHT22;4837;50.890;4.724;2023-12-29T17:33:00;11.20;99.90
9598;DHT22;4837;50.890;4.724;2023-12-29T17:35:26;11.20;99.90
9598;DHT22;4837;50.890;4.724;2023-12-29T17:37:51;11.10;99.90
9598;DHT22;4837;50.890;4.724;2023-12-29T17:40:17;11.10;99.90
9598;DHT22;4837;50.890;4.724;2023-12-29T17:42:43;11.00;99.90
9598;DHT22;4837;50.890;4.724;2023-12-29T17:45:10;11.00;99.90
9598;DHT22;4837;50.890;4.724;2023-12-29T17:47:36;11.00;99.90
9598;DHT22;4837;50.890;4.724;2023-12-29T17:50:02;11.00;99.90
9598;DHT22;4837;50.890;4.724;2023-12-29T17:52:29;11.00;99.90
9598;DHT22;4837;50.890;4.724;2023-12-29T17:54:55;10.80;99.90
9598;DHT22;4837;50.890;4.724;2023-12-29T17:57:20;11.00;99.90
9598;DHT22;4837;50.890;4.724;2023-12-29T17:59:46;10.90;99.90
9598;DHT22;4837;50.890;4.724;2023-12-29T18:02:14;10.90;99.90
9598;DHT22;4837;50.890;4.724;2023-12-29T18:04:40;10.90;99.90
9598;DHT22;4837;50.890;4.724;2023-12-29T18:07:06;10.90;99.90
9598;DHT22;4837;50.890;4.724;2023-12-29T18:09:32;10.90;99.90
9598;DHT22;4837;50.890;4.724;2023-12-29T18:11:57;10.90;99.90
9598;DHT22;4837;50.890;4.724;2023-12-29T18:14:23;10.90;99.90
9598;DHT22;4837;50.890;4.724;2023-12-29T18:16:52;10.90;99.90
9598;DHT22;4837;50.890;4.724;2023-12-29T18:19:17;10.90;99.90
9598;DHT22;4837;50.890;4.724;2023-12-29T18:21:48;11.00;99.90
9598;DHT22;4837;50.890;4.724;2023-12-29T18:24:14;10.90;99.90
9598;DHT22;4837;50.890;4.724;2023-12-29T18:26:42;10.90;99.90
9598;DHT22;4837;50.890;4.724;2023-12-29T18:29:08;11.00;99.90
9598;DHT22;4837;50.890;4.724;2023-12-29T18:31:41;11.00;99.90
9598;DHT22;4837;50.890;4.724;2023-12-29T18:34:07;11.00;99.90
9598;DHT22;4837;50.890;4.724;2023-12-29T18:36:35;11.00;99.90
9598;DHT22;4837;50.890;4.724;2023-12-29T18:39:01;11.00;99.90
9598;DHT22;4837;50.890;4.724;2023-12-29T18:41:27;11.00;99.90
9598;DHT22;4837;50.890;4.724;2023-12-29T18:43:52;11.00;99.90
9598;DHT22;4837;50.890;4.724;2023-12-29T18:46:18;10.90;99.90
9598;DHT22;4837;50.890;4.724;2023-12-29T18:48:44;10.90;99.90
9598;DHT22;4837;50.890;4.724;2023-12-29T18:51:10;10.80;99.90
9598;DHT22;4837;50.890;4.724;2023-12-29T18:53:36;10.80;99.90
9598;DHT22;4837;50.890;4.724;2023-12-29T18:56:06;10.80;99.90
9598;DHT22;4837;50.890;4.724;2023-12-29T18:58:36;10.70;99.90
9598;DHT22;4837;50.890;4.724;2023-12-29T19:01:04;10.70;99.90
9598;DHT22;4837;50.890;4.724;2023-12-29T19:03:30;10.70;99.90
9598;DHT22;4837;50.890;4.724;2023-12-29T19:05:58;10.70;99.90
9598;DHT22;4837;50.890;4.724;2023-12-29T19:08:24;10.60;99.90
9598;DHT22;4837;50.890;4.724;2023-12-29T19:10:51;10.60;99.90
9598;DHT22;4837;50.890;4.724;2023-12-29T19:13:17;10.60;99.90
9598;DHT22;4837;50.890;4.724;2023-12-29T19:15:42;10.50;99.90
9598;DHT22;4837;50.890;4.724;2023-12-29T19:18:08;10.50;99.90
9598;DHT22;4837;50.890;4.724;2023-12-29T19:20:34;10.50;99.90
9598;DHT22;4837;50.890;4.724;2023-12-29T19:23:01;10.50;99.90
9598;DHT22;4837;50.890;4.724;2023-12-29T19:25:26;10.50;99.90
9598;DHT22;4837;50.890;4.724;2023-12-29T19:27:52;10.50;99.90
9598;DHT22;4837;50.890;4.724;2023-12-29T19:30:20;10.50;99.90
9598;DHT22;4837;50.890;4.724;2023-12-29T19:32:47;10.50;99.90
9598;DHT22;4837;50.890;4.724;2023-12-29T19:35:14;10.40;99.90
9598;DHT22;4837;50.890;4.724;2023-12-29T19:37:40;10.40;99.90
9598;DHT22;4837;50.890;4.724;2023-12-29T19:40:09;10.40;99.90
9598;DHT22;4837;50.890;4.724;2023-12-29T19:42:35;10.40;99.90
9598;DHT22;4837;50.890;4.724;2023-12-29T19:45:01;10.40;99.90
9598;DHT22;4837;50.890;4.724;2023-12-29T19:47:27;10.40;99.90
9598;DHT22;4837;50.890;4.724;2023-12-29T19:49:52;10.30;99.90
